Alice, Texas
Current Conditions -  °F | °C
As of 10:53 AM on Friday 24 Oct 2014 (Local Time) from KALI Reporting Station
Clear Clear  
Wind Chill: 79°   Ceiling: Unl
Heat Index: 81°   Visibility: 10mi
Dew Point: 64°   Wind: 5mph
Humidity: 60%   Direction: 80°E
Pressure: 30.16"   Gusts: NA
Location:  27.75°N, 98.06°W
Report Text: KALI 241553Z AUTO 08004KT 10SM CLR 26/18 A3016 RMK AO2 SLP211 T02610178
Loading
Personal Weather Stations






























Interactive Weather Map
Tropical Storm Tracking
New forecast layout! Learn more

10-Day Weather Forecast

Advertisements
Track Severe Weather on mobile